sensor_id;sensor_type;location;lat;lon;timestamp;pressure;altitude;pressure_sealevel;temperature;humidity
8280;BME280;8335;42.646;23.380;2023-04-26T00:02:26;143968.34;;;9.63;100.00
8280;BME280;8335;42.646;23.380;2023-04-26T00:04:53;143942.28;;;9.53;100.00
8280;BME280;8335;42.646;23.380;2023-04-26T00:07:23;143921.19;;;9.44;100.00
8280;BME280;8335;42.646;23.380;2023-04-26T00:09:51;143919.94;;;9.44;100.00
8280;BME280;8335;42.646;23.380;2023-04-26T00:12:18;143917.44;;;9.43;100.00
8280;BME280;8335;42.646;23.380;2023-04-26T00:14:45;143905.03;;;9.37;100.00
8280;BME280;8335;42.646;23.380;2023-04-26T00:17:12;143898.78;;;9.35;100.00
8280;BME280;8335;42.646;23.380;2023-04-26T00:19:38;143887.66;;;9.30;100.00
8280;BME280;8335;42.646;23.380;2023-04-26T00:22:05;143881.41;;;9.28;100.00
8280;BME280;8335;42.646;23.380;2023-04-26T00:24:33;143850.41;;;9.15;100.00
8280;BME280;8335;42.646;23.380;2023-04-26T00:27:01;143844.16;;;9.13;100.00
8280;BME280;8335;42.646;23.380;2023-04-26T00:29:33;143835.50;;;9.09;100.00
8280;BME280;8335;42.646;23.380;2023-04-26T00:32:00;143836.75;;;9.09;100.00
8280;BME280;8335;42.646;23.380;2023-04-26T00:34:31;143833.03;;;9.08;100.00
8280;BME280;8335;42.646;23.380;2023-04-26T00:36:57;143824.31;;;9.04;100.00
8280;BME280;8335;42.646;23.380;2023-04-26T00:39:24;143819.34;;;9.02;100.00
8280;BME280;8335;42.646;23.380;2023-04-26T00:41:51;143816.88;;;9.01;100.00
8280;BME280;8335;42.646;23.380;2023-04-26T00:44:20;143808.16;;;8.98;100.00
8280;BME280;8335;42.646;23.380;2023-04-26T00:46:47;143792.03;;;8.91;100.00
8280;BME280;8335;42.646;23.380;2023-04-26T00:49:15;143782.13;;;8.87;100.00
8280;BME280;8335;42.646;23.380;2023-04-26T00:51:42;143765.97;;;8.80;100.00
8280;BME280;8335;42.646;23.380;2023-04-26T00:54:09;143767.22;;;8.81;100.00
8280;BME280;8335;42.646;23.380;2023-04-26T00:56:37;143763.50;;;8.79;100.00
8280;BME280;8335;42.646;23.380;2023-04-26T00:59:05;143753.56;;;8.75;100.00
8280;BME280;8335;42.646;23.380;2023-04-26T01:01:33;143747.38;;;8.73;100.00
8280;BME280;8335;42.646;23.380;2023-04-26T01:04:00;143737.41;;;8.69;100.00
8280;BME280;8335;42.646;23.380;2023-04-26T01:06:32;143751.06;;;8.74;100.00
8280;BME280;8335;42.646;23.380;2023-04-26T01:09:01;143744.88;;;8.72;100.00
8280;BME280;8335;42.646;23.380;2023-04-26T01:11:29;143727.50;;;8.65;100.00
8280;BME280;8335;42.646;23.380;2023-04-26T01:13:57;143703.91;;;8.55;100.00
8280;BME280;8335;42.646;23.380;2023-04-26T01:16:24;143717.56;;;8.61;100.00
8280;BME280;8335;42.646;23.380;2023-04-26T01:18:53;143712.59;;;8.59;100.00
8280;BME280;8335;42.646;23.380;2023-04-26T01:21:21;143695.25;;;8.51;100.00
8280;BME280;8335;42.646;23.380;2023-04-26T01:23:50;143690.25;;;8.49;100.00
8280;BME280;8335;42.646;23.380;2023-04-26T01:26:17;143638.06;;;8.28;100.00
8280;BME280;8335;42.646;23.380;2023-04-26T01:28:44;143676.63;;;8.44;100.00
8280;BME280;8335;42.646;23.380;2023-04-26T01:31:14;143667.91;;;8.40;100.00
8280;BME280;8335;42.646;23.380;2023-04-26T01:33:40;143624.47;;;8.22;100.00
8280;BME280;8335;42.646;23.380;2023-04-26T01:36:08;143598.38;;;8.12;100.00
8280;BME280;8335;42.646;23.380;2023-04-26T01:38:36;143567.38;;;7.99;100.00
8280;BME280;8335;42.646;23.380;2023-04-26T01:41:04;143551.22;;;7.92;100.00
8280;BME280;8335;42.646;23.380;2023-04-26T01:43:31;143552.47;;;7.93;100.00
8280;BME280;8335;42.646;23.380;2023-04-26T01:45:58;143551.22;;;7.92;100.00
8280;BME280;8335;42.646;23.380;2023-04-26T01:48:24;143563.66;;;7.97;100.00
8280;BME280;8335;42.646;23.380;2023-04-26T01:50:51;143568.59;;;7.99;100.00
8280;BME280;8335;42.646;23.380;2023-04-26T01:53:18;143564.88;;;7.98;100.00
8280;BME280;8335;42.646;23.380;2023-04-26T01:55:45;143578.53;;;8.04;100.00
8280;BME280;8335;42.646;23.380;2023-04-26T01:58:13;143589.72;;;8.08;100.00
8280;BME280;8335;42.646;23.380;2023-04-26T02:00:41;143588.50;;;8.08;100.00
8280;BME280;8335;42.646;23.380;2023-04-26T02:03:07;143588.50;;;8.08;100.00
8280;BME280;8335;42.646;23.380;2023-04-26T02:05:34;143594.66;;;8.10;100.00
8280;BME280;8335;42.646;23.380;2023-04-26T02:08:01;143590.97;;;8.09;100.00
8280;BME280;8335;42.646;23.380;2023-04-26T02:10:28;143577.31;;;8.03;100.00
8280;BME280;8335;42.646;23.380;2023-04-26T02:12:55;143579.78;;;8.04;100.00
8280;BME280;8335;42.646;23.380;2023-04-26T02:15:23;143572.34;;;8.01;100.00
8280;BME280;8335;42.646;23.380;2023-04-26T02:17:50;143572.34;;;8.01;100.00
8280;BME280;8335;42.646;23.380;2023-04-26T02:20:18;143566.13;;;7.98;100.00
8280;BME280;8335;42.646;23.380;2023-04-26T02:22:44;143567.38;;;7.99;100.00
8280;BME280;8335;42.646;23.380;2023-04-26T02:25:11;143548.75;;;7.91;100.00
8280;BME280;8335;42.646;23.380;2023-04-26T02:27:38;143525.22;;;7.82;100.00
8280;BME280;8335;42.646;23.380;2023-04-26T02:30:06;143543.81;;;7.89;100.00
8280;BME280;8335;42.646;23.380;2023-04-26T02:32:35;143556.22;;;7.94;100.00
8280;BME280;8335;42.646;23.380;2023-04-26T02:35:02;143562.41;;;7.97;100.00
8280;BME280;8335;42.646;23.380;2023-04-26T02:37:29;143558.69;;;7.95;100.00
8280;BME280;8335;42.646;23.380;2023-04-26T02:39:56;143555.00;;;7.94;100.00
8280;BME280;8335;42.646;23.380;2023-04-26T02:42:23;143553.75;;;7.93;100.00
8280;BME280;8335;42.646;23.380;2023-04-26T02:44:50;143588.50;;;8.08;100.00
8280;BME280;8335;42.646;23.380;2023-04-26T02:47:17;143609.56;;;8.16;100.00
8280;BME280;8335;42.646;23.380;2023-04-26T02:49:45;143621.94;;;8.21;100.00
8280;BME280;8335;42.646;23.380;2023-04-26T02:52:12;143566.13;;;7.98;100.00
8280;BME280;8335;42.646;23.380;2023-04-26T02:54:38;143566.13;;;7.98;100.00
8280;BME280;8335;42.646;23.380;2023-04-26T02:57:05;143558.69;;;7.95;100.00
8280;BME280;8335;42.646;23.380;2023-04-26T02:59:32;143564.88;;;7.98;100.00
8280;BME280;8335;42.646;23.380;2023-04-26T03:01:59;143561.19;;;7.96;100.00
8280;BME280;8335;42.646;23.380;2023-04-26T03:04:26;143563.66;;;7.97;100.00
8280;BME280;8335;42.646;23.380;2023-04-26T03:06:54;143566.13;;;7.98;100.00
8280;BME280;8335;42.646;23.380;2023-04-26T03:09:21;143569.84;;;8.00;100.00
8280;BME280;8335;42.646;23.380;2023-04-26T03:11:48;143576.06;;;8.03;100.00
8280;BME280;8335;42.646;23.380;2023-04-26T03:14:14;143577.31;;;8.03;100.00
8280;BME280;8335;42.646;23.380;2023-04-26T03:16:42;143561.19;;;7.96;100.00
8280;BME280;8335;42.646;23.380;2023-04-26T03:19:08;143582.25;;;8.05;100.00
8280;BME280;8335;42.646;23.380;2023-04-26T03:21:35;143585.97;;;8.07;100.00
8280;BME280;8335;42.646;23.380;2023-04-26T03:24:04;143600.84;;;8.13;100.00
8280;BME280;8335;42.646;23.380;2023-04-26T03:26:31;143605.84;;;8.15;100.00
8280;BME280;8335;42.646;23.380;2023-04-26T03:28:58;143613.28;;;8.18;100.00
8280;BME280;8335;42.646;23.380;2023-04-26T03:31:25;143620.72;;;8.21;100.00
8280;BME280;8335;42.646;23.380;2023-04-26T03:33:51;143639.31;;;8.28;100.00
8280;BME280;8335;42.646;23.380;2023-04-26T03:36:20;143649.25;;;8.33;100.00
8280;BME280;8335;42.646;23.380;2023-04-26T03:38:47;143658.00;;;8.36;100.00
8280;BME280;8335;42.646;23.380;2023-04-26T03:41:15;143656.72;;;8.36;100.00
8280;BME280;8335;42.646;23.380;2023-04-26T03:43:42;143651.72;;;8.34;100.00
8280;BME280;8335;42.646;23.380;2023-04-26T03:46:09;143675.38;;;8.43;100.00
8280;BME280;8335;42.646;23.380;2023-04-26T03:48:36;143692.75;;;8.50;100.00
8280;BME280;8335;42.646;23.380;2023-04-26T03:51:02;143727.50;;;8.65;100.00
8280;BME280;8335;42.646;23.380;2023-04-26T03:53:29;143759.75;;;8.78;100.00
8280;BME280;8335;42.646;23.380;2023-04-26T03:55:56;143799.50;;;8.94;100.00
8280;BME280;8335;42.646;23.380;2023-04-26T03:58:24;143839.22;;;9.10;100.00
8280;BME280;8335;42.646;23.380;2023-04-26T04:00:54;143877.69;;;9.26;100.00
8280;BME280;8335;42.646;23.380;2023-04-26T04:03:21;143948.47;;;9.55;100.00
8280;BME280;8335;42.646;23.380;2023-04-26T04:05:48;144070.22;;;10.05;100.00
8280;BME280;8335;42.646;23.380;2023-04-26T04:08:15;144215.72;;;10.65;100.00
8280;BME280;8335;42.646;23.380;2023-04-26T04:10:42;144307.72;;;11.02;100.00
8280;BME280;8335;42.646;23.380;2023-04-26T04:13:10;144346.28;;;11.18;100.00
8280;BME280;8335;42.646;23.380;2023-04-26T04:15:38;144382.34;;;11.33;100.00
8280;BME280;8335;42.646;23.380;2023-04-26T04:18:05;144440.78;;;11.57;100.00
8280;BME280;8335;42.646;23.380;2023-04-26T04:20:31;144456.97;;;11.64;100.00
8280;BME280;8335;42.646;23.380;2023-04-26T04:22:58;144459.50;;;11.65;100.00
8280;BME280;8335;42.646;23.380;2023-04-26T04:25:26;144450.75;;;11.61;100.00
8280;BME280;8335;42.646;23.380;2023-04-26T04:27:53;144438.31;;;11.56;100.00
8280;BME280;8335;42.646;23.380;2023-04-26T04:30:21;144433.34;;;11.54;100.00
8280;BME280;8335;42.646;23.380;2023-04-26T04:32:50;144427.13;;;11.51;100.00
8280;BME280;8335;42.646;23.380;2023-04-26T04:35:17;144417.16;;;11.47;100.00
8280;BME280;8335;42.646;23.380;2023-04-26T04:37:44;144427.13;;;11.51;100.00
8280;BME280;8335;42.646;23.380;2023-04-26T04:40:11;144427.13;;;11.51;100.00
8280;BME280;8335;42.646;23.380;2023-04-26T04:42:38;144475.63;;;11.71;100.00
8280;BME280;8335;42.646;23.380;2023-04-26T04:45:06;144625.03;;;12.32;100.00
8280;BME280;8335;42.646;23.380;2023-04-26T04:47:33;144732.09;;;12.76;97.08
8280;BME280;8335;42.646;23.380;2023-04-26T04:50:04;144764.50;;;12.89;95.03
8280;BME280;8335;42.646;23.380;2023-04-26T04:52:31;144795.63;;;13.02;94.60
8280;BME280;8335;42.646;23.380;2023-04-26T04:54:58;144835.50;;;13.18;93.35
8280;BME280;8335;42.646;23.380;2023-04-26T04:57:26;144865.44;;;13.31;92.11
8280;BME280;8335;42.646;23.380;2023-04-26T04:59:53;144825.50;;;13.14;92.72
8280;BME280;8335;42.646;23.380;2023-04-26T05:02:19;144834.25;;;13.18;93.18
8280;BME280;8335;42.646;23.380;2023-04-26T05:04:46;144841.75;;;13.21;92.75
8280;BME280;8335;42.646;23.380;2023-04-26T05:07:14;144849.25;;;13.24;92.53
8280;BME280;8335;42.646;23.380;2023-04-26T05:09:42;144852.97;;;13.26;92.68
8280;BME280;8335;42.646;23.380;2023-04-26T05:12:10;144880.41;;;13.37;90.91
8280;BME280;8335;42.646;23.380;2023-04-26T05:14:36;144941.44;;;13.62;90.66
8280;BME280;8335;42.646;23.380;2023-04-26T05:17:05;145018.72;;;13.93;89.63
8280;BME280;8335;42.646;23.380;2023-04-26T05:19:31;145067.31;;;14.13;89.14
8280;BME280;8335;42.646;23.380;2023-04-26T05:21:58;145115.94;;;14.33;87.68
8280;BME280;8335;42.646;23.380;2023-04-26T05:24:28;145108.47;;;14.30;87.01
8280;BME280;8335;42.646;23.380;2023-04-26T05:26:57;145153.41;;;14.48;87.55
8280;BME280;8335;42.646;23.380;2023-04-26T05:29:24;145125.94;;;14.37;87.08
8280;BME280;8335;42.646;23.380;2023-04-26T05:31:54;145069.78;;;14.14;86.59
8280;BME280;8335;42.646;23.380;2023-04-26T05:34:21;145107.25;;;14.29;87.12
8280;BME280;8335;42.646;23.380;2023-04-26T05:36:48;145173.34;;;14.56;85.64
8280;BME280;8335;42.646;23.380;2023-04-26T05:39:15;145305.56;;;15.10;84.39
8280;BME280;8335;42.646;23.380;2023-04-26T05:41:44;145511.53;;;15.94;81.88
8280;BME280;8335;42.646;23.380;2023-04-26T05:44:12;145725.13;;;16.82;79.05
8280;BME280;8335;42.646;23.380;2023-04-26T05:46:38;145913.81;;;17.58;75.21
8280;BME280;8335;42.646;23.380;2023-04-26T05:49:05;146046.34;;;18.12;70.75
8280;BME280;8335;42.646;23.380;2023-04-26T05:51:32;146158.94;;;18.58;68.70
8280;BME280;8335;42.646;23.380;2023-04-26T05:53:59;146279.03;;;19.07;67.51
8280;BME280;8335;42.646;23.380;2023-04-26T05:56:25;146342.88;;;19.33;64.17
8280;BME280;8335;42.646;23.380;2023-04-26T05:58:53;146251.53;;;18.96;61.46
8280;BME280;8335;42.646;23.380;2023-04-26T06:01:20;146026.34;;;18.04;63.51
8280;BME280;8335;42.646;23.380;2023-04-26T06:03:47;145775.09;;;17.02;66.28
8280;BME280;8335;42.646;23.380;2023-04-26T06:06:14;145732.59;;;16.85;68.50
8280;BME280;8335;42.646;23.380;2023-04-26T06:08:41;145707.63;;;16.74;68.31
8280;BME280;8335;42.646;23.380;2023-04-26T06:11:08;145698.88;;;16.71;69.19
8280;BME280;8335;42.646;23.380;2023-04-26T06:13:35;145703.91;;;16.73;68.91
8280;BME280;8335;42.646;23.380;2023-04-26T06:16:03;145627.63;;;16.42;68.81
8280;BME280;8335;42.646;23.380;2023-04-26T06:18:30;145683.88;;;16.65;68.72
8280;BME280;8335;42.646;23.380;2023-04-26T06:20:57;145726.38;;;16.82;68.83
8280;BME280;8335;42.646;23.380;2023-04-26T06:23:24;145747.59;;;16.91;67.86
8280;BME280;8335;42.646;23.380;2023-04-26T06:25:50;145752.56;;;16.93;67.82
8280;BME280;8335;42.646;23.380;2023-04-26T06:28:17;145827.59;;;17.23;67.58
8280;BME280;8335;42.646;23.380;2023-04-26T06:30:44;146027.59;;;18.05;65.24
8280;BME280;8335;42.646;23.380;2023-04-26T06:33:12;146076.38;;;18.25;62.87
8280;BME280;8335;42.646;23.380;2023-04-26T06:35:39;146061.38;;;18.19;62.52
8280;BME280;8335;42.646;23.380;2023-04-26T06:38:06;146173.91;;;18.64;60.94
8280;BME280;8335;42.646;23.380;2023-04-26T06:40:33;146176.44;;;18.65;60.91
8280;BME280;8335;42.646;23.380;2023-04-26T06:43:01;146148.91;;;18.54;61.91
8280;BME280;8335;42.646;23.380;2023-04-26T06:45:28;146125.16;;;18.45;60.92
8280;BME280;8335;42.646;23.380;2023-04-26T06:47:55;145976.34;;;17.84;63.82
8280;BME280;8335;42.646;23.380;2023-04-26T06:50:26;145838.78;;;17.28;64.60
8280;BME280;8335;42.646;23.380;2023-04-26T06:52:52;145647.63;;;16.50;65.96
8280;BME280;8335;42.646;23.380;2023-04-26T06:55:20;145542.72;;;16.07;65.66
8280;BME280;8335;42.646;23.380;2023-04-26T06:57:46;145421.63;;;15.58;63.76
8280;BME280;8335;42.646;23.380;2023-04-26T07:00:14;145365.44;;;15.35;64.49
8280;BME280;8335;42.646;23.380;2023-04-26T07:02:40;145304.31;;;15.10;67.11
8280;BME280;8335;42.646;23.380;2023-04-26T07:05:07;145360.47;;;15.33;65.53
8280;BME280;8335;42.646;23.380;2023-04-26T07:07:36;145475.34;;;15.80;61.49
8280;BME280;8335;42.646;23.380;2023-04-26T07:10:03;145655.13;;;16.53;61.24
8280;BME280;8335;42.646;23.380;2023-04-26T07:12:30;145853.81;;;17.34;58.93
8280;BME280;8335;42.646;23.380;2023-04-26T07:14:56;146025.09;;;18.04;55.19
8280;BME280;8335;42.646;23.380;2023-04-26T07:17:23;146072.63;;;18.23;56.92
8280;BME280;8335;42.646;23.380;2023-04-26T07:19:50;146269.06;;;19.03;53.24
8280;BME280;8335;42.646;23.380;2023-04-26T07:22:17;146384.16;;;19.50;50.70
8280;BME280;8335;42.646;23.380;2023-04-26T07:24:45;146554.50;;;20.19;49.32
8280;BME280;8335;42.646;23.380;2023-04-26T07:27:12;146698.56;;;20.78;47.74
8280;BME280;8335;42.646;23.380;2023-04-26T07:29:38;146850.25;;;21.39;46.25
8280;BME280;8335;42.646;23.380;2023-04-26T07:32:05;147052.13;;;22.21;45.48
8280;BME280;8335;42.646;23.380;2023-04-26T07:34:32;147019.56;;;22.08;45.60
8280;BME280;8335;42.646;23.380;2023-04-26T07:36:59;146910.41;;;21.64;44.58
8280;BME280;8335;42.646;23.380;2023-04-26T07:39:25;146886.63;;;21.54;44.60
8280;BME280;8335;42.646;23.380;2023-04-26T07:41:54;146832.72;;;21.32;46.16
8280;BME280;8335;42.646;23.380;2023-04-26T07:44:20;146885.34;;;21.54;44.66
8280;BME280;8335;42.646;23.380;2023-04-26T07:46:47;146930.50;;;21.72;43.46
8280;BME280;8335;42.646;23.380;2023-04-26T07:49:14;146847.75;;;21.38;42.87
8280;BME280;8335;42.646;23.380;2023-04-26T07:51:43;146743.69;;;20.96;41.88
8280;BME280;8335;42.646;23.380;2023-04-26T07:54:10;146727.41;;;20.89;42.57
8280;BME280;8335;42.646;23.380;2023-04-26T07:56:36;146790.06;;;21.15;42.87
8280;BME280;8335;42.646;23.380;2023-04-26T07:59:04;146713.63;;;20.84;42.53
8280;BME280;8335;42.646;23.380;2023-04-26T08:01:32;146620.94;;;20.46;43.51
8280;BME280;8335;42.646;23.380;2023-04-26T08:03:58;146493.16;;;19.94;43.65
8280;BME280;8335;42.646;23.380;2023-04-26T08:06:25;146488.13;;;19.92;44.37
8280;BME280;8335;42.646;23.380;2023-04-26T08:08:53;146516.94;;;20.04;43.72
8280;BME280;8335;42.646;23.380;2023-04-26T08:11:20;146589.56;;;20.33;43.96
8280;BME280;8335;42.646;23.380;2023-04-26T08:13:47;146758.75;;;21.02;42.30
8280;BME280;8335;42.646;23.380;2023-04-26T08:16:15;146857.75;;;21.42;40.90
8280;BME280;8335;42.646;23.380;2023-04-26T08:18:42;146944.25;;;21.78;40.84
8280;BME280;8335;42.646;23.380;2023-04-26T08:21:08;146951.81;;;21.81;41.20
8280;BME280;8335;42.646;23.380;2023-04-26T08:23:35;147006.97;;;22.03;40.22
8280;BME280;8335;42.646;23.380;2023-04-26T08:26:02;146897.91;;;21.59;40.96
8280;BME280;8335;42.646;23.380;2023-04-26T08:28:29;146846.50;;;21.38;40.83
8280;BME280;8335;42.646;23.380;2023-04-26T08:30:56;146783.78;;;21.12;41.77
8280;BME280;8335;42.646;23.380;2023-04-26T08:33:24;146702.38;;;20.79;42.24
8280;BME280;8335;42.646;23.380;2023-04-26T08:35:51;146595.84;;;20.36;43.33
8280;BME280;8335;42.646;23.380;2023-04-26T08:38:18;146435.53;;;19.71;44.45
8280;BME280;8335;42.646;23.380;2023-04-26T08:40:46;146390.47;;;19.52;45.58
8280;BME280;8335;42.646;23.380;2023-04-26T08:43:14;146230.28;;;18.87;46.23
8280;BME280;8335;42.646;23.380;2023-04-26T08:45:43;146160.19;;;18.59;47.14
8280;BME280;8335;42.646;23.380;2023-04-26T08:48:11;146115.13;;;18.40;48.85
8280;BME280;8335;42.646;23.380;2023-04-26T08:50:42;146018.88;;;18.01;48.66
8280;BME280;8335;42.646;23.380;2023-04-26T08:53:13;146118.88;;;18.42;49.52
8280;BME280;8335;42.646;23.380;2023-04-26T08:55:40;146162.69;;;18.60;48.58
8280;BME280;8335;42.646;23.380;2023-04-26T08:58:07;146180.25;;;18.67;48.31
8280;BME280;8335;42.646;23.380;2023-04-26T09:00:34;146252.78;;;18.96;47.71
8280;BME280;8335;42.646;23.380;2023-04-26T09:03:01;146317.88;;;19.23;47.53
8280;BME280;8335;42.646;23.380;2023-04-26T09:05:28;146272.81;;;19.05;48.06
8280;BME280;8335;42.646;23.380;2023-04-26T09:07:59;146266.56;;;19.02;46.90
8280;BME280;8335;42.646;23.380;2023-04-26T09:10:28;146259.03;;;18.99;47.88
8280;BME280;8335;42.646;23.380;2023-04-26T09:12:56;146168.91;;;18.62;49.15
8280;BME280;8335;42.646;23.380;2023-04-26T09:15:24;146220.25;;;18.83;48.00
8280;BME280;8335;42.646;23.380;2023-04-26T09:17:52;146245.31;;;18.93;47.21
8280;BME280;8335;42.646;23.380;2023-04-26T09:20:21;146098.88;;;18.34;48.70
8280;BME280;8335;42.646;23.380;2023-04-26T09:22:49;146220.25;;;18.83;48.14
8280;BME280;8335;42.646;23.380;2023-04-26T09:25:25;146183.97;;;18.68;47.85
8280;BME280;8335;42.646;23.380;2023-04-26T09:27:52;146219.00;;;18.83;47.41
8280;BME280;8335;42.646;23.380;2023-04-26T09:30:20;146185.22;;;18.69;47.96
8280;BME280;8335;42.646;23.380;2023-04-26T09:32:49;146191.47;;;18.72;47.75
8280;BME280;8335;42.646;23.380;2023-04-26T09:35:27;146168.91;;;18.62;46.78
8280;BME280;8335;42.646;23.380;2023-04-26T09:37:56;146166.41;;;18.61;46.45
8280;BME280;8335;42.646;23.380;2023-04-26T09:40:26;146130.16;;;18.47;47.82
8280;BME280;8335;42.646;23.380;2023-04-26T09:43:00;146063.84;;;18.20;47.20
8280;BME280;8335;42.646;23.380;2023-04-26T09:45:28;146096.38;;;18.33;46.67
8280;BME280;8335;42.646;23.380;2023-04-26T09:48:11;146120.13;;;18.42;46.96
8280;BME280;8335;42.646;23.380;2023-04-26T09:50:38;146105.16;;;18.36;47.48
8280;BME280;8335;42.646;23.380;2023-04-26T09:53:05;146095.13;;;18.32;47.76
8280;BME280;8335;42.646;23.380;2023-04-26T09:55:33;146163.94;;;18.60;49.04
8280;BME280;8335;42.646;23.380;2023-04-26T09:58:07;146190.22;;;18.71;49.67
8280;BME280;8335;42.646;23.380;2023-04-26T10:00:33;146186.47;;;18.69;49.25
8280;BME280;8335;42.646;23.380;2023-04-26T10:03:03;146170.16;;;18.63;50.01
8280;BME280;8335;42.646;23.380;2023-04-26T10:05:31;146173.91;;;18.64;49.94
8280;BME280;8335;42.646;23.380;2023-04-26T10:07:58;146130.16;;;18.47;48.99
8280;BME280;8335;42.646;23.380;2023-04-26T10:10:25;146068.91;;;18.22;51.01
8280;BME280;8335;42.646;23.380;2023-04-26T10:12:54;146036.38;;;18.08;50.59
8280;BME280;8335;42.646;23.380;2023-04-26T10:15:20;146117.63;;;18.41;51.01
8280;BME280;8335;42.646;23.380;2023-04-26T10:17:47;146155.16;;;18.57;49.85
8280;BME280;8335;42.646;23.380;2023-04-26T10:20:15;146073.88;;;18.24;50.33
8280;BME280;8335;42.646;23.380;2023-04-26T10:22:45;146061.38;;;18.19;50.86
8280;BME280;8335;42.646;23.380;2023-04-26T10:25:15;146067.59;;;18.21;51.56
8280;BME280;8335;42.646;23.380;2023-04-26T10:27:49;146072.63;;;18.23;51.78
8280;BME280;8335;42.646;23.380;2023-04-26T10:30:22;146126.41;;;18.45;51.75
8280;BME280;8335;42.646;23.380;2023-04-26T10:33:16;146225.25;;;18.85;47.45
8280;BME280;8335;42.646;23.380;2023-04-26T10:36:06;146199.00;;;18.75;47.13
8280;BME280;8335;42.646;23.380;2023-04-26T10:38:34;146148.91;;;18.54;46.84
8280;BME280;8335;42.646;23.380;2023-04-26T10:41:27;146042.59;;;18.11;48.51
8280;BME280;8335;42.646;23.380;2023-04-26T10:43:54;145936.31;;;17.68;49.52
8280;BME280;8335;42.646;23.380;2023-04-26T10:46:39;145837.56;;;17.27;49.88
8280;BME280;8335;42.646;23.380;2023-04-26T10:49:14;145850.06;;;17.32;49.63
8280;BME280;8335;42.646;23.380;2023-04-26T10:52:08;145813.81;;;17.18;48.91
8280;BME280;8335;42.646;23.380;2023-04-26T10:54:56;145803.81;;;17.14;48.30
8280;BME280;8335;42.646;23.380;2023-04-26T10:57:44;145738.88;;;16.87;48.69
8280;BME280;8335;42.646;23.380;2023-04-26T11:00:19;145743.84;;;16.89;48.66
8280;BME280;8335;42.646;23.380;2023-04-26T11:02:55;145687.59;;;16.66;48.27
8280;BME280;8335;42.646;23.380;2023-04-26T11:05:52;145723.88;;;16.81;48.27
8280;BME280;8335;42.646;23.380;2023-04-26T11:08:23;145705.16;;;16.73;47.58
8280;BME280;8335;42.646;23.380;2023-04-26T11:10:56;145691.34;;;16.68;48.78
8280;BME280;8335;42.646;23.380;2023-04-26T11:13:23;145698.88;;;16.71;47.89
8280;BME280;8335;42.646;23.380;2023-04-26T11:15:53;145645.13;;;16.49;48.66
8280;BME280;8335;42.646;23.380;2023-04-26T11:18:21;145670.13;;;16.59;47.94
8280;BME280;8335;42.646;23.380;2023-04-26T11:20:48;145657.63;;;16.54;47.56
8280;BME280;8335;42.646;23.380;2023-04-26T11:23:17;145675.09;;;16.61;46.91
8280;BME280;8335;42.646;23.380;2023-04-26T11:25:43;145682.56;;;16.64;48.44
8280;BME280;8335;42.646;23.380;2023-04-26T11:28:10;145696.38;;;16.70;47.65
8280;BME280;8335;42.646;23.380;2023-04-26T11:30:37;145678.84;;;16.63;46.54
8280;BME280;8335;42.646;23.380;2023-04-26T11:33:04;145672.63;;;16.60;46.16
8280;BME280;8335;42.646;23.380;2023-04-26T11:35:34;145632.66;;;16.44;45.94
8280;BME280;8335;42.646;23.380;2023-04-26T11:38:03;145673.88;;;16.61;47.45
8280;BME280;8335;42.646;23.380;2023-04-26T11:40:30;145661.34;;;16.56;46.08
8280;BME280;8335;42.646;23.380;2023-04-26T11:42:59;145748.84;;;16.91;46.94
8280;BME280;8335;42.646;23.380;2023-04-26T11:45:27;145761.34;;;16.96;45.71
8280;BME280;8335;42.646;23.380;2023-04-26T11:47:54;145755.13;;;16.94;44.55
8280;BME280;8335;42.646;23.380;2023-04-26T11:50:21;145738.88;;;16.87;45.48
8280;BME280;8335;42.646;23.380;2023-04-26T11:52:53;145710.13;;;16.75;45.62
8280;BME280;8335;42.646;23.380;2023-04-26T11:55:23;145758.84;;;16.95;44.60
8280;BME280;8335;42.646;23.380;2023-04-26T11:57:50;145762.59;;;16.97;45.27
8280;BME280;8335;42.646;23.380;2023-04-26T12:00:18;145791.34;;;17.09;45.29
8280;BME280;8335;42.646;23.380;2023-04-26T12:02:46;145828.81;;;17.24;44.00
8280;BME280;8335;42.646;23.380;2023-04-26T12:05:23;145836.31;;;17.27;44.08
8280;BME280;8335;42.646;23.380;2023-04-26T12:07:50;145801.31;;;17.13;43.48
8280;BME280;8335;42.646;23.380;2023-04-26T12:10:22;145832.56;;;17.25;45.25
8280;BME280;8335;42.646;23.380;2023-04-26T12:12:50;145822.53;;;17.21;43.25
8280;BME280;8335;42.646;23.380;2023-04-26T12:15:18;145726.38;;;16.82;44.26
8280;BME280;8335;42.646;23.380;2023-04-26T12:17:54;145835.06;;;17.26;44.21
8280;BME280;8335;42.646;23.380;2023-04-26T12:20:26;145826.34;;;17.23;44.21
8280;BME280;8335;42.646;23.380;2023-04-26T12:22:57;145800.06;;;17.12;43.77
8280;BME280;8335;42.646;23.380;2023-04-26T12:25:26;145798.81;;;17.12;44.54
8280;BME280;8335;42.646;23.380;2023-04-26T12:27:53;145781.34;;;17.04;44.46
8280;BME280;8335;42.646;23.380;2023-04-26T12:30:20;145751.34;;;16.92;44.67
8280;BME280;8335;42.646;23.380;2023-04-26T12:32:46;145716.34;;;16.78;45.22
8280;BME280;8335;42.646;23.380;2023-04-26T12:35:14;145708.88;;;16.75;47.57
8280;BME280;8335;42.646;23.380;2023-04-26T12:37:40;145712.63;;;16.76;45.97
8280;BME280;8335;42.646;23.380;2023-04-26T12:40:08;145718.91;;;16.79;44.50
8280;BME280;8335;42.646;23.380;2023-04-26T12:42:37;145682.56;;;16.64;44.34
8280;BME280;8335;42.646;23.380;2023-04-26T12:45:05;145662.59;;;16.56;46.31
8280;BME280;8335;42.646;23.380;2023-04-26T12:47:32;145637.66;;;16.46;45.98
8280;BME280;8335;42.646;23.380;2023-04-26T12:49:59;145627.63;;;16.42;44.62
8280;BME280;8335;42.646;23.380;2023-04-26T12:52:26;145580.22;;;16.22;46.02
8280;BME280;8335;42.646;23.380;2023-04-26T12:54:53;145556.47;;;16.13;46.17
8280;BME280;8335;42.646;23.380;2023-04-26T12:57:19;145534.00;;;16.04;45.60
8280;BME280;8335;42.646;23.380;2023-04-26T12:59:48;145515.28;;;15.96;47.09
8280;BME280;8335;42.646;23.380;2023-04-26T13:02:15;145459.13;;;15.73;48.11
8280;BME280;8335;42.646;23.380;2023-04-26T13:04:41;145427.84;;;15.60;47.53
8280;BME280;8335;42.646;23.380;2023-04-26T13:07:08;145410.38;;;15.53;47.83